Seawolf — WDE7235 — position and weather

sailwx.info

Track history (hours):
 
Tides and Currents Weather Stations Pressure Air Temp Water Temp Dewpoint Dewpoint Depression Visibility Wind Speed Wind Dir Waves Ship Positions

Oceanographic research ship Seawolf (United States)

Owner: School of Marine and Atmospheric Sciences, Stony Brook University, NY, Stony Brook, NY. More information available from US FCC via Universal Licensing System and Coast Guard Vessel Documentation Center.

Last reported at 2019-Jun-19 08:43 UTC. Time now 2019-Jun-19 15:05 UTC.
Position N 40°59' W 071°57'.

Length 24 m; draft 3.5 m.

Type: Other ship. MMSI: 367390740.

Date/timePositionNaut miles runAvg speedWind from/ knotsBaromVisibWave heightAir tempDewpointWater temp
2019-Jun-19 08:43N 40°59' W 071°57'3 1.3
2019-Jun-19 06:40N 40°57' W 071°59'  
2019-Jun-16 23:30N 40°41' W 074°04'0 0.0
2019-Jun-16 23:00N 40°41' W 074°04'0 0.0
2019-Jun-16 22:30N 40°41' W 074°04'0 0.0
2019-Jun-16 22:00N 40°41' W 074°04'0 0.0
2019-Jun-16 21:30N 40°41' W 074°04'0 0.0
2019-Jun-16 21:01N 40°41' W 074°04'0 0.0
2019-Jun-16 20:31N 40°41' W 074°04'0 0.0
2019-Jun-16 20:01N 40°41' W 074°04'0 0.0
2019-Jun-16 19:30N 40°41' W 074°04'0 0.0
2019-Jun-16 19:00N 40°41' W 074°04'0 0.1
2019-Jun-16 18:31N 40°41' W 074°04'0 0.0
2019-Jun-16 18:00N 40°41' W 074°04'0 0.0
2019-Jun-16 17:30N 40°41' W 074°04'0 0.0
2019-Jun-16 17:00N 40°41' W 074°04'0 0.0
2019-Jun-16 16:31N 40°41' W 074°04'0 0.0
2019-Jun-16 16:00N 40°41' W 074°04'0 0.0
2019-Jun-16 15:31N 40°41' W 074°04'0 0.0
2019-Jun-16 15:01N 40°41' W 074°04'0 0.0
2019-Jun-16 14:30N 40°41' W 074°04'0 0.0
2019-Jun-16 14:01N 40°41' W 074°04'0 0.0
2019-Jun-16 13:30N 40°41' W 074°04'0 0.0
2019-Jun-16 13:01N 40°41' W 074°04'0 0.0
2019-Jun-16 12:30N 40°41' W 074°04'0 0.1
2019-Jun-16 12:01N 40°41' W 074°04'0 0.1
2019-Jun-16 11:31N 40°41' W 074°04'0 0.0
2019-Jun-16 11:00N 40°41' W 074°04'0 0.0
2019-Jun-16 10:30N 40°41' W 074°04'0 0.0
2019-Jun-16 10:01N 40°41' W 074°04'0 0.0
2019-Jun-16 09:30N 40°41' W 074°04'0 0.0
2019-Jun-16 09:00N 40°41' W 074°04'0 0.0
2019-Jun-16 08:31N 40°41' W 074°04'0 0.0
2019-Jun-16 08:01N 40°41' W 074°04'0 0.0
2019-Jun-16 07:31N 40°41' W 074°04'0 0.0
2019-Jun-16 07:01N 40°41' W 074°04'0 0.0
2019-Jun-16 06:30N 40°41' W 074°04'0 0.0
2019-Jun-16 06:01N 40°41' W 074°04'0 0.0
2019-Jun-16 05:30N 40°41' W 074°04'0 0.0
2019-Jun-16 05:00N 40°41' W 074°04'0 0.0
2019-Jun-16 04:30N 40°41' W 074°04'0 0.0
2019-Jun-16 04:00N 40°41' W 074°04'0 0.0
2019-Jun-16 03:30N 40°41' W 074°04'0 0.4
2019-Jun-16 03:00N 40°41' W 074°04'3 6.9
2019-Jun-16 02:30N 40°38' W 074°03'20 6.3
2019-Jun-15 23:24N 40°31' W 073°38'10 1.2
2019-Jun-15 15:34N 40°35' W 073°27'0 3.1
2019-Jun-15 15:29N 40°35' W 073°27'0 0.2
2019-Jun-15 14:57N 40°35' W 073°27'1 1.4
2019-Jun-15 14:27N 40°35' W 073°28'1 1.9
2019-Jun-15 14:00N 40°35' W 073°29'3 3.8
2019-Jun-15 13:21N 40°34' W 073°32'3 7.8
2019-Jun-15 13:01N 40°32' W 073°34'4 7.6
2019-Jun-15 12:31N 40°29' W 073°37'21 5.7
2019-Jun-15 08:49N 40°37' W 074°02'3 8.9
2019-Jun-15 08:30N 40°39' W 074°03'2 4.2
2019-Jun-15 08:00N 40°41' W 074°04'0 0.0
2019-Jun-15 07:28N 40°41' W 074°04'0 0.0
2019-Jun-15 07:01N 40°41' W 074°04'0 0.0
2019-Jun-15 06:30N 40°41' W 074°04'0 0.0
2019-Jun-15 06:00N 40°41' W 074°04'0 0.0
2019-Jun-15 05:30N 40°41' W 074°04'0 0.0
2019-Jun-15 05:00N 40°41' W 074°04'0 0.0
2019-Jun-15 04:30N 40°41' W 074°04'0 0.0
2019-Jun-15 04:01N 40°41' W 074°04'0 0.0
2019-Jun-15 03:30N 40°41' W 074°04'0 0.0
2019-Jun-15 03:00N 40°41' W 074°04'0 0.0
2019-Jun-15 02:31N 40°41' W 074°04'3 5.8
2019-Jun-15 02:00N 40°38' W 074°03'5 7.8
2019-Jun-15 01:22N 40°33' W 074°01'22 3.0
2019-Jun-14 17:56N 40°30' W 073°32'2 2.6
2019-Jun-14 17:12N 40°30' W 073°35'0 0.8
2019-Jun-14 16:56N 40°30' W 073°35'2 4.3
2019-Jun-14 16:25N 40°32' W 073°38'2 2.8
2019-Jun-14 15:43N 40°33' W 073°40'1 2.8
2019-Jun-14 15:28N 40°33' W 073°41'1 1.8
2019-Jun-14 14:49N 40°33' W 073°42'0 0.8
2019-Jun-14 14:28N 40°33' W 073°42'1 2.4
2019-Jun-14 13:56N 40°34' W 073°42'15 3.0
2019-Jun-14 08:57N 40°35' W 074°02'4 8.3
2019-Jun-14 08:30N 40°38' W 074°03'3 6.4
2019-Jun-14 08:00N 40°41' W 074°04'0 0.0
2019-Jun-14 07:31N 40°41' W 074°04'0 0.0
2019-Jun-14 07:00N 40°41' W 074°04'0 0.0
2019-Jun-14 06:31N 40°41' W 074°04'0 0.0
2019-Jun-14 06:01N 40°41' W 074°04'0 0.0
2019-Jun-14 05:31N 40°41' W 074°04'0 0.0
2019-Jun-14 05:01N 40°41' W 074°04'0 0.0
2019-Jun-14 04:30N 40°41' W 074°04'0 0.0
2019-Jun-14 04:00N 40°41' W 074°04'0 0.0
2019-Jun-14 03:31N 40°41' W 074°04'0 0.0
2019-Jun-14 03:00N 40°41' W 074°04'0 0.0
2019-Jun-14 02:31N 40°41' W 074°04'0 0.0
2019-Jun-14 02:00N 40°41' W 074°04'0 0.0
2019-Jun-14 01:30N 40°41' W 074°04'0 0.0
2019-Jun-14 01:00N 40°41' W 074°04'0 0.0
2019-Jun-14 00:31N 40°41' W 074°04'0 0.0
2019-Jun-14 00:00N 40°41' W 074°04'0 0.0
2019-Jun-13 23:30N 40°41' W 074°04'0 0.0
2019-Jun-13 23:00N 40°41' W 074°04'0 0.0
2019-Jun-13 22:31N 40°41' W 074°04'0 0.0
2019-Jun-13 22:00N 40°41' W 074°04'0 0.0
2019-Jun-13 21:31N 40°41' W 074°04'0 0.0
2019-Jun-13 21:00N 40°41' W 074°04'0 0.0
2019-Jun-13 20:30N 40°41' W 074°04'0 0.0
2019-Jun-13 20:00N 40°41' W 074°04'0 0.0
2019-Jun-13 19:30N 40°41' W 074°04'0 0.0
2019-Jun-13 19:01N 40°41' W 074°04'0 0.0
2019-Jun-13 18:31N 40°41' W 074°04'0 0.0
2019-Jun-13 18:00N 40°41' W 074°04'0 0.0
2019-Jun-13 17:30N 40°41' W 074°04'0 0.0
2019-Jun-13 17:00N 40°41' W 074°04'0 0.0
2019-Jun-13 16:30N 40°41' W 074°04'0 0.0
2019-Jun-13 16:01N 40°41' W 074°04'0 0.0
2019-Jun-13 15:31N 40°41' W 074°04'0 0.0
2019-Jun-13 15:01N 40°41' W 074°04'0 0.0
2019-Jun-13 14:31N 40°41' W 074°04'0 0.0
2019-Jun-13 14:01N 40°41' W 074°04'0 0.0
2019-Jun-13 13:31N 40°41' W 074°04'0 0.0
2019-Jun-13 13:01N 40°41' W 074°04'0 0.0
2019-Jun-13 12:30N 40°41' W 074°04'0 0.0
2019-Jun-13 12:00N 40°41' W 074°04'0 0.0
2019-Jun-13 11:31N 40°41' W 074°04'0 0.0
2019-Jun-13 11:01N 40°41' W 074°04'0 0.0
2019-Jun-13 10:31N 40°41' W 074°04'0 0.0
2019-Jun-13 10:00N 40°41' W 074°04'0 0.0
2019-Jun-13 09:31N 40°41' W 074°04'0 0.0
2019-Jun-13 09:00N 40°41' W 074°04'0 0.0
2019-Jun-13 08:30N 40°41' W 074°04'0 0.0
2019-Jun-13 08:00N 40°41' W 074°04'0 0.0
2019-Jun-13 07:30N 40°41' W 074°04'0 0.0
2019-Jun-13 07:00N 40°41' W 074°04'0 0.0
2019-Jun-13 06:30N 40°41' W 074°04'0 0.0
2019-Jun-13 06:00N 40°41' W 074°04'0 0.0
2019-Jun-13 05:30N 40°41' W 074°04'0 0.0
2019-Jun-13 05:01N 40°41' W 074°04'0 0.0
2019-Jun-13 04:31N 40°41' W 074°04'0 0.0
2019-Jun-13 04:00N 40°41' W 074°04'0 0.0
2019-Jun-13 03:31N 40°41' W 074°04'0 0.0
2019-Jun-13 03:00N 40°41' W 074°04'0 0.0
2019-Jun-13 02:31N 40°41' W 074°04'0 0.0
2019-Jun-13 02:01N 40°41' W 074°04'0 0.0
2019-Jun-13 01:30N 40°41' W 074°04'0 0.0
2019-Jun-13 01:00N 40°41' W 074°04'0 0.0
2019-Jun-13 00:31N 40°41' W 074°04'0 0.0
2019-Jun-13 00:00N 40°41' W 074°04'0 0.0
2019-Jun-12 23:31N 40°41' W 074°04'0 0.0
2019-Jun-12 23:00N 40°41' W 074°04'0 0.0
2019-Jun-12 22:31N 40°41' W 074°04'0 0.0
2019-Jun-12 22:00N 40°41' W 074°04'0 0.0
2019-Jun-12 21:30N 40°41' W 074°04'2 4.1
2019-Jun-12 21:01N 40°41' W 074°02'3 6.2
2019-Jun-12 20:31N 40°43' W 073°58'3 6.4
2019-Jun-12 20:00N 40°46' W 073°57'  
Track history (hours):
 
Tides and Currents Weather Stations Pressure Air Temp Water Temp Dewpoint Dewpoint Depression Visibility Wind Speed Wind Dir Waves Ship Positions

Oceanographic research ship Seawolf (United States)

Owner: School of Marine and Atmospheric Sciences, Stony Brook University, NY, Stony Brook, NY. More information available from US FCC via Universal Licensing System and Coast Guard Vessel Documentation Center.

Last reported at 2019-Jun-19 08:43 UTC. Time now 2019-Jun-19 15:05 UTC.
Position N 40°59' W 071°57'.

Length 24 m; draft 3.5 m.

Type: Other ship. MMSI: 367390740.

Date/timePositionNaut miles runAvg speedWind from/ knotsBaromVisibWave heightAir tempDewpointWater temp
2019-Jun-19 08:43N 40°59' W 071°57'3 1.3
2019-Jun-19 06:40N 40°57' W 071°59'  
2019-Jun-16 23:30N 40°41' W 074°04'0 0.0
2019-Jun-16 23:00N 40°41' W 074°04'0 0.0
2019-Jun-16 22:30N 40°41' W 074°04'0 0.0
2019-Jun-16 22:00N 40°41' W 074°04'0 0.0
2019-Jun-16 21:30N 40°41' W 074°04'0 0.0
2019-Jun-16 21:01N 40°41' W 074°04'0 0.0
2019-Jun-16 20:31N 40°41' W 074°04'0 0.0
2019-Jun-16 20:01N 40°41' W 074°04'0 0.0
2019-Jun-16 19:30N 40°41' W 074°04'0 0.0
2019-Jun-16 19:00N 40°41' W 074°04'0 0.1
2019-Jun-16 18:31N 40°41' W 074°04'0 0.0
2019-Jun-16 18:00N 40°41' W 074°04'0 0.0
2019-Jun-16 17:30N 40°41' W 074°04'0 0.0
2019-Jun-16 17:00N 40°41' W 074°04'0 0.0
2019-Jun-16 16:31N 40°41' W 074°04'0 0.0
2019-Jun-16 16:00N 40°41' W 074°04'0 0.0
2019-Jun-16 15:31N 40°41' W 074°04'0 0.0
2019-Jun-16 15:01N 40°41' W 074°04'0 0.0
2019-Jun-16 14:30N 40°41' W 074°04'0 0.0
2019-Jun-16 14:01N 40°41' W 074°04'0 0.0
2019-Jun-16 13:30N 40°41' W 074°04'0 0.0
2019-Jun-16 13:01N 40°41' W 074°04'0 0.0
2019-Jun-16 12:30N 40°41' W 074°04'0 0.1
2019-Jun-16 12:01N 40°41' W 074°04'0 0.1
2019-Jun-16 11:31N 40°41' W 074°04'0 0.0
2019-Jun-16 11:00N 40°41' W 074°04'0 0.0
2019-Jun-16 10:30N 40°41' W 074°04'0 0.0
2019-Jun-16 10:01N 40°41' W 074°04'0 0.0
2019-Jun-16 09:30N 40°41' W 074°04'0 0.0
2019-Jun-16 09:00N 40°41' W 074°04'0 0.0
2019-Jun-16 08:31N 40°41' W 074°04'0 0.0
2019-Jun-16 08:01N 40°41' W 074°04'0 0.0
2019-Jun-16 07:31N 40°41' W 074°04'0 0.0
2019-Jun-16 07:01N 40°41' W 074°04'0 0.0
2019-Jun-16 06:30N 40°41' W 074°04'0 0.0
2019-Jun-16 06:01N 40°41' W 074°04'0 0.0
2019-Jun-16 05:30N 40°41' W 074°04'0 0.0
2019-Jun-16 05:00N 40°41' W 074°04'0 0.0
2019-Jun-16 04:30N 40°41' W 074°04'0 0.0
2019-Jun-16 04:00N 40°41' W 074°04'0 0.0
2019-Jun-16 03:30N 40°41' W 074°04'0 0.4
2019-Jun-16 03:00N 40°41' W 074°04'3 6.9
2019-Jun-16 02:30N 40°38' W 074°03'20 6.3
2019-Jun-15 23:24N 40°31' W 073°38'10 1.2
2019-Jun-15 15:34N 40°35' W 073°27'0 3.1
2019-Jun-15 15:29N 40°35' W 073°27'0 0.2
2019-Jun-15 14:57N 40°35' W 073°27'1 1.4
2019-Jun-15 14:27N 40°35' W 073°28'1 1.9
2019-Jun-15 14:00N 40°35' W 073°29'3 3.8
2019-Jun-15 13:21N 40°34' W 073°32'3 7.8
2019-Jun-15 13:01N 40°32' W 073°34'4 7.6
2019-Jun-15 12:31N 40°29' W 073°37'21 5.7
2019-Jun-15 08:49N 40°37' W 074°02'3 8.9
2019-Jun-15 08:30N 40°39' W 074°03'2 4.2
2019-Jun-15 08:00N 40°41' W 074°04'0 0.0
2019-Jun-15 07:28N 40°41' W 074°04'0 0.0
2019-Jun-15 07:01N 40°41' W 074°04'0 0.0
2019-Jun-15 06:30N 40°41' W 074°04'0 0.0
2019-Jun-15 06:00N 40°41' W 074°04'0 0.0
2019-Jun-15 05:30N 40°41' W 074°04'0 0.0
2019-Jun-15 05:00N 40°41' W 074°04'0 0.0
2019-Jun-15 04:30N 40°41' W 074°04'0 0.0
2019-Jun-15 04:01N 40°41' W 074°04'0 0.0
2019-Jun-15 03:30N 40°41' W 074°04'0 0.0
2019-Jun-15 03:00N 40°41' W 074°04'0 0.0
2019-Jun-15 02:31N 40°41' W 074°04'3 5.8
2019-Jun-15 02:00N 40°38' W 074°03'5 7.8
2019-Jun-15 01:22N 40°33' W 074°01'22 3.0
2019-Jun-14 17:56N 40°30' W 073°32'2 2.6
2019-Jun-14 17:12N 40°30' W 073°35'0 0.8
2019-Jun-14 16:56N 40°30' W 073°35'2 4.3
2019-Jun-14 16:25N 40°32' W 073°38'2 2.8
2019-Jun-14 15:43N 40°33' W 073°40'1 2.8
2019-Jun-14 15:28N 40°33' W 073°41'1 1.8
2019-Jun-14 14:49N 40°33' W 073°42'0 0.8
2019-Jun-14 14:28N 40°33' W 073°42'1 2.4
2019-Jun-14 13:56N 40°34' W 073°42'15 3.0
2019-Jun-14 08:57N 40°35' W 074°02'4 8.3
2019-Jun-14 08:30N 40°38' W 074°03'3 6.4
2019-Jun-14 08:00N 40°41' W 074°04'0 0.0
2019-Jun-14 07:31N 40°41' W 074°04'0 0.0
2019-Jun-14 07:00N 40°41' W 074°04'0 0.0
2019-Jun-14 06:31N 40°41' W 074°04'0 0.0
2019-Jun-14 06:01N 40°41' W 074°04'0 0.0
2019-Jun-14 05:31N 40°41' W 074°04'0 0.0
2019-Jun-14 05:01N 40°41' W 074°04'0 0.0
2019-Jun-14 04:30N 40°41' W 074°04'0 0.0
2019-Jun-14 04:00N 40°41' W 074°04'0 0.0
2019-Jun-14 03:31N 40°41' W 074°04'0 0.0
2019-Jun-14 03:00N 40°41' W 074°04'0 0.0
2019-Jun-14 02:31N 40°41' W 074°04'0 0.0
2019-Jun-14 02:00N 40°41' W 074°04'0 0.0
2019-Jun-14 01:30N 40°41' W 074°04'0 0.0
2019-Jun-14 01:00N 40°41' W 074°04'0 0.0
2019-Jun-14 00:31N 40°41' W 074°04'0 0.0
2019-Jun-14 00:00N 40°41' W 074°04'0 0.0
2019-Jun-13 23:30N 40°41' W 074°04'0 0.0
2019-Jun-13 23:00N 40°41' W 074°04'0 0.0
2019-Jun-13 22:31N 40°41' W 074°04'0 0.0
2019-Jun-13 22:00N 40°41' W 074°04'0 0.0
2019-Jun-13 21:31N 40°41' W 074°04'0 0.0
2019-Jun-13 21:00N 40°41' W 074°04'0 0.0
2019-Jun-13 20:30N 40°41' W 074°04'0 0.0
2019-Jun-13 20:00N 40°41' W 074°04'0 0.0
2019-Jun-13 19:30N 40°41' W 074°04'0 0.0
2019-Jun-13 19:01N 40°41' W 074°04'0 0.0
2019-Jun-13 18:31N 40°41' W 074°04'0 0.0
2019-Jun-13 18:00N 40°41' W 074°04'0 0.0
2019-Jun-13 17:30N 40°41' W 074°04'0 0.0
2019-Jun-13 17:00N 40°41' W 074°04'0 0.0
2019-Jun-13 16:30N 40°41' W 074°04'0 0.0
2019-Jun-13 16:01N 40°41' W 074°04'0 0.0
2019-Jun-13 15:31N 40°41' W 074°04'0 0.0
2019-Jun-13 15:01N 40°41' W 074°04'0 0.0
2019-Jun-13 14:31N 40°41' W 074°04'0 0.0
2019-Jun-13 14:01N 40°41' W 074°04'0 0.0
2019-Jun-13 13:31N 40°41' W 074°04'0 0.0
2019-Jun-13 13:01N 40°41' W 074°04'0 0.0
2019-Jun-13 12:30N 40°41' W 074°04'0 0.0
2019-Jun-13 12:00N 40°41' W 074°04'0 0.0
2019-Jun-13 11:31N 40°41' W 074°04'0 0.0
2019-Jun-13 11:01N 40°41' W 074°04'0 0.0
2019-Jun-13 10:31N 40°41' W 074°04'0 0.0
2019-Jun-13 10:00N 40°41' W 074°04'0 0.0
2019-Jun-13 09:31N 40°41' W 074°04'0 0.0
2019-Jun-13 09:00N 40°41' W 074°04'0 0.0
2019-Jun-13 08:30N 40°41' W 074°04'0 0.0
2019-Jun-13 08:00N 40°41' W 074°04'0 0.0
2019-Jun-13 07:30N 40°41' W 074°04'0 0.0
2019-Jun-13 07:00N 40°41' W 074°04'0 0.0
2019-Jun-13 06:30N 40°41' W 074°04'0 0.0
2019-Jun-13 06:00N 40°41' W 074°04'0 0.0
2019-Jun-13 05:30N 40°41' W 074°04'0 0.0
2019-Jun-13 05:01N 40°41' W 074°04'0 0.0
2019-Jun-13 04:31N 40°41' W 074°04'0 0.0
2019-Jun-13 04:00N 40°41' W 074°04'0 0.0
2019-Jun-13 03:31N 40°41' W 074°04'0 0.0
2019-Jun-13 03:00N 40°41' W 074°04'0 0.0
2019-Jun-13 02:31N 40°41' W 074°04'0 0.0
2019-Jun-13 02:01N 40°41' W 074°04'0 0.0
2019-Jun-13 01:30N 40°41' W 074°04'0 0.0
2019-Jun-13 01:00N 40°41' W 074°04'0 0.0
2019-Jun-13 00:31N 40°41' W 074°04'0 0.0
2019-Jun-13 00:00N 40°41' W 074°04'0 0.0
2019-Jun-12 23:31N 40°41' W 074°04'0 0.0
2019-Jun-12 23:00N 40°41' W 074°04'0 0.0
2019-Jun-12 22:31N 40°41' W 074°04'0 0.0
2019-Jun-12 22:00N 40°41' W 074°04'0 0.0
2019-Jun-12 21:30N 40°41' W 074°04'2 4.1
2019-Jun-12 21:01N 40°41' W 074°02'3 6.2
2019-Jun-12 20:31N 40°43' W 073°58'3 6.4
2019-Jun-12 20:00N 40°46' W 073°57'  

Dump ship's entire track history